Time;durP1;ratioP1;P1;durP2;ratioP2;P2;SDS_P1;SDS_P2;PMS_P1;PMS_P2;Temp;Humidity;BMP_temperature;BMP_pressure;BME280_temperature;BME280_humidity;BME280_pressure;Samples;Min_cycle;Max_cycle;Signal;HPM_P1;HPM_P2
2022/09/18 00:02:21;;;;;;;5.97;1.03;;;11.00;99.90;;;;;;5045099;28;20198;-48
2022/09/18 00:04:48;;;;;;;4.00;1.20;;;11.00;99.90;;;;;;5034516;28;20215;-47
2022/09/18 00:07:17;;;;;;;7.47;1.10;;;11.00;99.90;;;;;;5039959;28;20235;-45
2022/09/18 00:09:44;;;;;;;10.13;1.00;;;11.00;99.90;;;;;;5043810;28;20818;-48
2022/09/18 00:12:11;;;;;;;3.93;1.13;;;11.00;99.90;;;;;;5043235;28;20183;-45
2022/09/18 00:14:38;;;;;;;10.00;1.80;;;11.00;99.90;;;;;;5044103;28;20273;-48
2022/09/18 00:17:05;;;;;;;6.87;1.17;;;11.00;99.90;;;;;;5040795;28;20190;-47
2022/09/18 00:19:32;;;;;;;10.17;1.40;;;11.00;99.90;;;;;;5045081;28;20191;-45
2022/09/18 00:21:59;;;;;;;7.40;1.20;;;11.00;99.90;;;;;;5027879;28;20234;-45
2022/09/18 00:24:27;;;;;;;4.13;1.00;;;11.00;99.90;;;;;;5043726;28;20227;-46
2022/09/18 00:26:54;;;;;;;5.70;1.30;;;11.00;99.90;;;;;;5041823;28;20302;-49
2022/09/18 00:29:21;;;;;;;7.90;1.47;;;11.00;99.90;;;;;;5044833;28;20566;-44
2022/09/18 00:31:48;;;;;;;4.87;1.40;;;11.00;99.90;;;;;;5042792;28;20200;-46
2022/09/18 00:34:16;;;;;;;7.43;1.93;;;11.00;99.90;;;;;;5042329;28;20183;-46
2022/09/18 00:36:43;;;;;;;6.27;1.70;;;11.00;99.90;;;;;;5031061;28;20199;-45
2022/09/18 00:39:11;;;;;;;6.20;1.53;;;11.00;99.90;;;;;;5042414;28;20376;-47
2022/09/18 00:41:42;;;;;;;11.03;1.50;;;11.00;99.90;;;;;;5044329;28;20195;-45
2022/09/18 00:44:31;;;;;;;4.60;1.00;;;11.00;99.90;;;;;;5041073;28;20183;-45
2022/09/18 00:47:05;;;;;;;7.43;1.37;;;11.00;99.90;;;;;;5040674;28;21125;-46
2022/09/18 00:49:33;;;;;;;8.10;1.57;;;11.00;99.90;;;;;;5044402;28;20278;-45
2022/09/18 00:52:01;;;;;;;6.00;1.43;;;11.00;99.90;;;;;;5027600;28;20955;-45
2022/09/18 00:54:33;;;;;;;10.07;1.70;;;11.10;99.90;;;;;;5043399;28;20616;-48
2022/09/18 00:57:05;;;;;;;6.90;1.63;;;11.10;99.90;;;;;;5055799;28;20191;-47
2022/09/18 00:59:34;;;;;;;5.30;1.80;;;11.10;99.90;;;;;;5044741;28;20667;-50
2022/09/18 01:02:02;;;;;;;5.70;1.30;;;11.10;99.90;;;;;;5040104;28;20188;-47
2022/09/18 01:04:29;;;;;;;7.57;1.50;;;11.10;99.90;;;;;;5043269;28;20208;-46
2022/09/18 01:07:05;;;;;;;5.27;1.23;;;11.10;99.90;;;;;;5027485;28;20222;-49
2022/09/18 01:09:40;;;;;;;10.53;1.40;;;11.10;99.90;;;;;;5044107;28;20191;-46
2022/09/18 01:12:18;;;;;;;9.60;1.33;;;11.10;99.90;;;;;;5040993;28;20236;-45
2022/09/18 01:14:56;;;;;;;6.40;1.57;;;11.10;99.90;;;;;;5041467;28;20238;-47
2022/09/18 01:17:32;;;;;;;8.90;1.57;;;11.20;99.90;;;;;;5039318;28;20280;-46
2022/09/18 01:20:28;;;;;;;3.63;1.20;;;11.20;99.90;;;;;;5053789;28;20194;-49
2022/09/18 01:23:11;;;;;;;7.87;1.40;;;11.10;99.90;;;;;;5025896;28;20321;-46
2022/09/18 01:25:50;;;;;;;7.40;1.73;;;11.10;99.90;;;;;;5043464;28;20730;-47
2022/09/18 01:28:24;;;;;;;7.77;1.33;;;11.20;99.90;;;;;;5041499;28;20681;-46
2022/09/18 01:30:57;;;;;;;12.30;1.50;;;11.10;99.90;;;;;;5039747;28;20206;-48
2022/09/18 01:33:31;;;;;;;3.80;1.03;;;11.10;99.90;;;;;;5041468;28;20230;-45
2022/09/18 01:36:02;;;;;;;8.33;1.30;;;11.10;99.90;;;;;;5025682;28;20230;-48
2022/09/18 01:38:31;;;;;;;6.20;1.30;;;11.10;99.90;;;;;;5043536;28;20198;-49
2022/09/18 01:41:04;;;;;;;8.40;2.20;;;11.10;99.90;;;;;;5038260;28;20214;-47
2022/09/18 01:43:36;;;;;;;9.13;1.30;;;11.00;99.90;;;;;;5041312;28;20200;-46
2022/09/18 01:46:09;;;;;;;6.90;1.40;;;11.00;99.90;;;;;;5038444;28;20208;-46
2022/09/18 01:48:41;;;;;;;7.47;1.70;;;11.00;99.90;;;;;;5042126;28;20199;-47
2022/09/18 01:51:14;;;;;;;5.97;2.30;;;11.00;99.90;;;;;;5039751;28;20218;-47
2022/09/18 01:53:44;;;;;;;4.47;1.33;;;11.00;99.90;;;;;;5029119;28;20207;-50
2022/09/18 01:56:16;;;;;;;5.27;1.17;;;10.90;99.90;;;;;;5039759;28;20211;-46
2022/09/18 01:58:48;;;;;;;6.87;1.40;;;10.90;99.90;;;;;;5040965;28;20292;-48
2022/09/18 02:01:20;;;;;;;5.40;1.67;;;10.90;99.90;;;;;;5041210;28;20199;-49
2022/09/18 02:03:51;;;;;;;10.70;1.90;;;10.90;99.90;;;;;;5039097;28;20237;-46
2022/09/18 02:06:25;;;;;;;7.67;1.33;;;10.80;99.90;;;;;;5040948;28;20215;-49
2022/09/18 02:08:55;;;;;;;5.30;1.20;;;10.80;99.90;;;;;;5027068;28;20217;-48
2022/09/18 02:11:24;;;;;;;4.17;1.20;;;10.90;99.90;;;;;;5043275;28;20286;-49
2022/09/18 02:13:58;;;;;;;8.87;1.27;;;10.80;99.90;;;;;;5039655;28;20202;-49
2022/09/18 02:16:40;;;;;;;8.60;1.20;;;10.90;99.90;;;;;;5042130;28;20242;-47
2022/09/18 02:19:18;;;;;;;6.60;1.30;;;10.80;99.90;;;;;;5038248;28;20195;-51
2022/09/18 02:21:48;;;;;;;8.20;1.40;;;10.80;99.90;;;;;;5040184;28;20557;-46
2022/09/18 02:24:19;;;;;;;4.73;1.57;;;10.80;99.90;;;;;;5026844;28;20206;-47
2022/09/18 02:26:49;;;;;;;5.33;1.57;;;10.80;99.90;;;;;;5041021;28;20215;-49
2022/09/18 02:29:19;;;;;;;6.50;1.80;;;10.80;99.90;;;;;;5040759;28;20897;-45
2022/09/18 02:31:48;;;;;;;10.80;1.90;;;10.70;99.90;;;;;;5036208;28;20204;-48
2022/09/18 02:34:18;;;;;;;8.00;2.17;;;10.70;99.90;;;;;;5039493;28;20294;-47
2022/09/18 02:36:59;;;;;;;7.30;1.83;;;10.70;99.90;;;;;;5040292;28;20274;-45
2022/09/18 02:39:39;;;;;;;5.57;1.77;;;10.70;99.90;;;;;;5029842;28;20221;-46
2022/09/18 02:42:22;;;;;;;10.93;1.83;;;10.70;99.90;;;;;;5042193;28;20222;-48
2022/09/18 02:44:58;;;;;;;6.80;1.20;;;10.70;99.90;;;;;;5042000;28;20594;-47
2022/09/18 02:47:35;;;;;;;5.67;1.77;;;10.70;99.90;;;;;;5045543;28;20223;-49
2022/09/18 02:50:11;;;;;;;3.33;0.87;;;10.60;99.90;;;;;;5040654;28;20237;-51
2022/09/18 02:52:45;;;;;;;12.23;1.40;;;10.60;99.90;;;;;;5045191;28;20199;-48
2022/09/18 02:55:18;;;;;;;9.07;1.70;;;10.60;99.90;;;;;;5030863;28;20222;-46
2022/09/18 02:57:49;;;;;;;5.80;1.37;;;10.60;99.90;;;;;;5043923;28;20223;-49
2022/09/18 03:00:18;;;;;;;6.43;1.10;;;10.50;99.90;;;;;;5044322;28;20195;-46
2022/09/18 03:02:50;;;;;;;9.10;1.63;;;10.40;99.90;;;;;;5044104;28;20198;-47
2022/09/18 03:05:29;;;;;;;10.23;1.53;;;10.30;99.90;;;;;;5043955;28;20226;-48
2022/09/18 03:07:59;;;;;;;7.50;1.33;;;10.30;99.90;;;;;;5041109;28;20235;-47
2022/09/18 03:10:27;;;;;;;9.50;1.73;;;10.20;99.90;;;;;;5032036;28;20211;-47
2022/09/18 03:12:54;;;;;;;10.77;1.40;;;10.20;99.90;;;;;;5042606;28;20548;-49
2022/09/18 03:15:22;;;;;;;6.23;1.30;;;10.10;99.90;;;;;;5044104;28;20234;-49
2022/09/18 03:17:51;;;;;;;10.23;1.47;;;10.10;99.90;;;;;;5043614;28;20203;-49
2022/09/18 03:20:18;;;;;;;3.70;1.90;;;10.10;99.90;;;;;;5045240;28;20241;-51
2022/09/18 03:22:45;;;;;;;9.10;1.37;;;10.10;99.90;;;;;;5044654;28;20274;-49
2022/09/18 03:25:13;;;;;;;9.20;1.77;;;10.10;99.90;;;;;;5028823;28;20228;-46
2022/09/18 03:27:41;;;;;;;6.80;1.17;;;10.10;99.90;;;;;;5043904;28;20647;-49
2022/09/18 03:30:10;;;;;;;5.07;1.27;;;10.10;99.90;;;;;;5042216;28;20190;-46
2022/09/18 03:32:39;;;;;;;6.73;1.20;;;10.10;99.90;;;;;;5044608;28;20249;-49
2022/09/18 03:35:09;;;;;;;6.33;1.00;;;10.10;99.90;;;;;;5041152;28;20302;-46
2022/09/18 03:37:36;;;;;;;6.27;1.07;;;10.20;99.90;;;;;;5044761;28;20241;-47
2022/09/18 03:40:07;;;;;;;5.97;1.13;;;10.20;99.90;;;;;;5038021;28;20203;-48
2022/09/18 03:42:34;;;;;;;7.80;1.23;;;10.20;99.90;;;;;;5029476;28;20296;-46
2022/09/18 03:45:01;;;;;;;8.40;1.67;;;10.30;99.90;;;;;;5044157;28;21013;-46
2022/09/18 03:47:28;;;;;;;5.90;1.23;;;10.30;99.90;;;;;;5057661;28;21022;-47
2022/09/18 03:49:57;;;;;;;3.43;1.10;;;10.30;99.90;;;;;;5048927;28;20218;-49
2022/09/18 03:52:23;;;;;;;4.73;1.60;;;10.30;99.90;;;;;;5059881;28;20195;-48
2022/09/18 03:54:57;;;;;;;3.93;1.10;;;10.30;99.90;;;;;;5050789;28;20230;-48
2022/09/18 03:57:44;;;;;;;4.30;0.87;;;10.30;99.90;;;;;;5032297;28;20569;-47
2022/09/18 04:00:41;;;;;;;4.30;0.90;;;10.30;99.90;;;;;;5033099;28;20211;-49
2022/09/18 04:03:16;;;;;;;5.17;1.07;;;10.20;99.90;;;;;;5039445;28;20800;-50
2022/09/18 04:06:17;;;;;;;4.03;0.90;;;10.20;99.90;;;;;;5018152;28;20219;-47
2022/09/18 04:09:04;;;;;;;4.93;0.90;;;10.20;99.90;;;;;;5034593;28;20211;-50
2022/09/18 04:11:42;;;;;;;3.37;1.20;;;10.10;99.90;;;;;;5038735;28;20206;-48
2022/09/18 04:14:08;;;;;;;7.00;1.20;;;10.10;99.90;;;;;;5027237;28;20223;-47
2022/09/18 04:16:35;;;;;;;7.97;1.40;;;10.10;99.90;;;;;;5041647;28;20657;-48
2022/09/18 04:19:03;;;;;;;4.07;1.00;;;10.10;99.90;;;;;;5040431;28;20183;-46
2022/09/18 04:21:31;;;;;;;3.77;1.13;;;10.10;99.90;;;;;;5044269;28;20191;-48
2022/09/18 04:23:58;;;;;;;5.37;0.90;;;10.10;99.90;;;;;;5039224;28;20249;-48
2022/09/18 04:26:25;;;;;;;5.13;1.20;;;10.10;99.90;;;;;;5043299;28;20223;-48
2022/09/18 04:28:56;;;;;;;6.23;1.30;;;10.10;99.90;;;;;;5028229;28;20219;-49
2022/09/18 04:31:23;;;;;;;7.60;1.00;;;10.10;99.90;;;;;;5043361;28;20280;-46
2022/09/18 04:33:50;;;;;;;4.87;1.47;;;10.10;99.90;;;;;;5040575;28;20195;-51
2022/09/18 04:36:21;;;;;;;8.70;1.30;;;10.10;99.90;;;;;;5042934;28;20302;-46
2022/09/18 04:38:49;;;;;;;6.03;1.20;;;10.10;99.90;;;;;;5043775;28;20191;-52
2022/09/18 04:41:16;;;;;;;2.63;1.00;;;10.10;99.90;;;;;;5041209;28;20188;-48
2022/09/18 04:43:44;;;;;;;5.17;0.80;;;10.10;99.90;;;;;;5028801;28;20211;-50
2022/09/18 04:46:12;;;;;;;7.83;0.90;;;10.20;99.90;;;;;;5040792;28;20208;-46
2022/09/18 04:48:40;;;;;;;5.50;1.63;;;10.20;99.90;;;;;;5044539;28;20219;-47
2022/09/18 04:51:08;;;;;;;6.27;1.20;;;10.10;99.90;;;;;;5037624;28;20223;-47
2022/09/18 04:53:48;;;;;;;5.67;1.10;;;10.20;99.90;;;;;;5039157;28;20199;-50
2022/09/18 04:56:16;;;;;;;6.20;2.20;;;10.20;99.90;;;;;;5043334;28;20310;-48
2022/09/18 04:58:47;;;;;;;6.60;1.30;;;10.10;99.90;;;;;;5027182;28;20214;-46
2022/09/18 05:01:14;;;;;;;6.80;0.87;;;10.10;99.90;;;;;;5035933;28;20678;-47
2022/09/18 05:03:42;;;;;;;6.80;1.03;;;10.10;99.90;;;;;;5049075;28;20195;-47
2022/09/18 05:06:15;;;;;;;7.37;1.20;;;10.10;99.90;;;;;;5040874;28;20218;-46
2022/09/18 05:08:42;;;;;;;5.90;1.30;;;10.10;99.90;;;;;;5040886;28;20227;-50
2022/09/18 05:11:10;;;;;;;2.53;1.17;;;10.10;99.90;;;;;;5041189;28;20321;-51
2022/09/18 05:13:38;;;;;;;9.53;1.40;;;10.10;99.90;;;;;;5030277;28;20192;-49
2022/09/18 05:16:12;;;;;;;3.93;0.90;;;10.40;99.90;;;;;;5037902;28;20312;-46
2022/09/18 05:18:40;;;;;;;5.27;1.10;;;10.20;99.90;;;;;;5057471;28;20253;-47
2022/09/18 05:21:07;;;;;;;2.87;0.97;;;10.20;99.90;;;;;;5040305;28;20210;-48
2022/09/18 05:23:34;;;;;;;6.40;0.83;;;10.20;99.90;;;;;;5037980;28;20299;-47
2022/09/18 05:26:02;;;;;;;2.13;0.90;;;10.10;99.90;;;;;;5038284;28;20239;-47
2022/09/18 05:28:30;;;;;;;5.63;1.07;;;10.10;99.90;;;;;;5041260;28;20226;-49
2022/09/18 05:30:59;;;;;;;5.57;1.17;;;10.10;99.90;;;;;;5024767;28;20199;-48
2022/09/18 05:33:31;;;;;;;5.00;0.90;;;10.10;99.90;;;;;;5039237;28;20235;-49
2022/09/18 05:35:59;;;;;;;4.70;1.10;;;10.10;99.90;;;;;;5038520;28;21001;-48
2022/09/18 05:38:26;;;;;;;11.60;1.17;;;10.10;99.90;;;;;;5051680;28;20660;-47
2022/09/18 05:40:53;;;;;;;4.50;0.70;;;10.10;99.90;;;;;;5037778;28;20835;-48
2022/09/18 05:43:20;;;;;;;5.03;1.20;;;10.00;99.90;;;;;;5042027;28;20203;-48
2022/09/18 05:45:50;;;;;;;3.37;0.60;;;10.00;99.90;;;;;;5027176;28;20302;-51
2022/09/18 05:48:27;;;;;;;4.77;0.90;;;10.00;99.90;;;;;;5035542;28;20250;-47
2022/09/18 05:50:56;;;;;;;3.70;0.80;;;10.00;99.90;;;;;;5033797;28;20268;-50
2022/09/18 05:53:27;;;;;;;5.50;0.80;;;10.00;99.90;;;;;;5026948;28;20828;-51
2022/09/18 05:56:12;;;;;;;3.60;0.90;;;9.90;99.90;;;;;;5032254;28;20468;-50
2022/09/18 05:58:40;;;;;;;3.60;1.23;;;10.00;99.90;;;;;;5056116;28;20195;-49
2022/09/18 06:01:10;;;;;;;3.63;0.83;;;10.00;99.90;;;;;;5026095;28;20234;-48
2022/09/18 06:03:54;;;;;;;5.13;1.20;;;10.00;99.90;;;;;;5029609;28;20192;-49
2022/09/18 06:06:22;;;;;;;4.03;0.90;;;9.90;99.90;;;;;;5054510;28;20272;-53
2022/09/18 06:08:49;;;;;;;4.27;0.80;;;9.90;99.90;;;;;;5041899;28;20221;-47
2022/09/18 06:11:15;;;;;;;2.87;0.60;;;9.90;99.90;;;;;;5044572;28;20187;-46
2022/09/18 06:13:43;;;;;;;2.53;0.80;;;10.00;99.90;;;;;;5034180;28;20205;-51
2022/09/18 06:16:11;;;;;;;5.20;0.77;;;10.00;99.90;;;;;;5028908;28;20215;-48
2022/09/18 06:18:50;;;;;;;3.00;0.67;;;10.00;99.90;;;;;;5058289;28;20187;-47
2022/09/18 06:21:17;;;;;;;7.10;1.33;;;10.00;99.90;;;;;;5042143;28;20391;-49
2022/09/18 06:23:44;;;;;;;7.93;1.43;;;9.90;99.90;;;;;;5044550;28;20282;-46
2022/09/18 06:26:23;;;;;;;4.90;1.43;;;9.90;99.90;;;;;;5050879;28;20955;-46
2022/09/18 06:28:50;;;;;;;2.00;0.70;;;9.90;99.90;;;;;;5038650;28;20234;-41
2022/09/18 06:31:19;;;;;;;7.67;1.13;;;9.90;99.90;;;;;;5029627;28;20210;-43
2022/09/18 06:33:57;;;;;;;2.73;2.00;;;;;;;;;;5043591;28;20612;-44
2022/09/18 06:36:24;;;;;;;7.43;1.20;;;;;;;;;;5039766;28;20219;-41
2022/09/18 06:39:11;;;;;;;3.47;0.73;;;;;;;;;;5032643;28;20191;-41
2022/09/18 06:41:39;;;;;;;10.83;1.27;;;;;;;;;;5055151;28;20287;-41
2022/09/18 06:44:17;;;;;;;6.70;1.30;;;10.10;99.90;;;;;;5029319;28;20211;-42
2022/09/18 06:46:49;;;;;;;5.57;1.63;;;10.20;99.90;;;;;;5044638;28;20249;-43
2022/09/18 06:49:26;;;;;;;6.03;1.77;;;10.20;99.90;;;;;;5050468;28;20222;-44
2022/09/18 06:51:55;;;;;;;2.60;0.87;;;;;;;;;;5042842;28;20216;-42
2022/09/18 06:54:22;;;;;;;4.53;1.37;;;9.90;99.90;;;;;;5058080;28;20187;-41
2022/09/18 06:56:49;;;;;;;5.10;1.00;;;10.20;99.90;;;;;;5048900;28;20746;-40
2022/09/18 06:59:18;;;;;;;5.47;0.70;;;10.10;99.90;;;;;;5034211;28;20195;-41
2022/09/18 07:01:47;;;;;;;6.50;1.37;;;10.10;99.90;;;;;;5041649;28;20560;-40
2022/09/18 07:04:34;;;;;;;7.43;1.10;;;10.10;99.90;;;;;;5024389;28;20235;-43
2022/09/18 07:07:01;;;;;;;5.50;1.00;;;10.00;99.90;;;;;;5042835;28;20187;-45
2022/09/18 07:09:29;;;;;;;6.53;1.20;;;10.10;99.90;;;;;;5043423;28;20257;-40
2022/09/18 07:12:03;;;;;;;4.13;1.53;;;10.10;99.90;;;;;;5055994;28;20221;-43
2022/09/18 07:14:37;;;;;;;4.93;0.90;;;10.10;99.90;;;;;;5038990;28;20227;-40
2022/09/18 07:17:13;;;;;;;3.10;0.97;;;10.20;99.90;;;;;;5040244;28;20191;-41
2022/09/18 07:19:41;;;;;;;5.57;1.27;;;10.00;99.90;;;;;;5029439;28;20238;-42
2022/09/18 07:22:09;;;;;;;6.43;1.40;;;10.20;99.90;;;;;;5040803;28;20195;-41
2022/09/18 07:24:41;;;;;;;4.40;1.67;;;10.30;99.90;;;;;;5044413;28;20214;-41
2022/09/18 07:27:08;;;;;;;4.70;0.90;;;10.10;99.90;;;;;;5044556;28;21017;-42
2022/09/18 07:29:36;;;;;;;4.23;1.00;;;10.50;99.90;;;;;;5035416;28;20218;-45
2022/09/18 07:32:03;;;;;;;6.47;1.70;;;10.60;99.90;;;;;;5036705;28;20294;-42
2022/09/18 07:34:31;;;;;;;6.40;1.10;;;10.60;99.90;;;;;;5040011;28;20238;-42
2022/09/18 07:36:59;;;;;;;8.40;1.20;;;10.60;99.90;;;;;;5028573;28;20966;-43
2022/09/18 07:39:27;;;;;;;4.63;1.43;;;10.40;99.90;;;;;;5038920;28;20192;-41
2022/09/18 07:42:13;;;;;;;7.40;1.50;;;10.60;99.90;;;;;;5062490;28;20257;-41
2022/09/18 07:44:47;;;;;;;12.70;1.50;;;10.70;99.90;;;;;;5038929;28;20322;-45
2022/09/18 07:47:15;;;;;;;7.33;1.20;;;10.80;99.90;;;;;;5057800;28;20195;-43
2022/09/18 07:49:43;;;;;;;8.13;1.60;;;10.80;99.90;;;;;;5033770;28;20230;-40
2022/09/18 07:52:12;;;;;;;8.00;1.50;;;10.80;99.90;;;;;;5039588;28;20200;-41
2022/09/18 07:54:44;;;;;;;3.07;1.10;;;11.00;99.90;;;;;;5037621;28;20310;-41
2022/09/18 07:57:26;;;;;;;6.23;1.17;;;11.00;99.90;;;;;;5032945;28;20207;-41
2022/09/18 08:00:09;;;;;;;6.53;1.43;;;11.20;99.90;;;;;;5033395;28;20203;-41
2022/09/18 08:02:42;;;;;;;3.20;1.13;;;11.20;99.90;;;;;;5038576;28;20228;-42
2022/09/18 08:05:11;;;;;;;10.00;1.50;;;11.30;99.90;;;;;;5029067;28;20646;-42
2022/09/18 08:07:53;;;;;;;4.17;1.20;;;11.30;99.90;;;;;;5041661;28;20200;-41
2022/09/18 08:10:40;;;;;;;8.03;1.60;;;11.30;99.90;;;;;;5039149;28;20214;-41
2022/09/18 08:13:32;;;;;;;6.87;0.93;;;11.30;99.90;;;;;;5031335;28;20207;-44
2022/09/18 08:16:28;;;;;;;3.30;1.10;;;11.50;99.90;;;;;;5037962;28;20277;-42
2022/09/18 08:19:09;;;;;;;5.50;1.23;;;11.60;99.90;;;;;;5039617;28;20558;-43
2022/09/18 08:21:47;;;;;;;8.90;1.17;;;11.70;99.90;;;;;;5023545;28;20257;-43
2022/09/18 08:24:17;;;;;;;6.63;1.30;;;11.70;99.90;;;;;;5037445;28;20199;-42
2022/09/18 08:26:45;;;;;;;6.13;1.00;;;11.90;99.90;;;;;;5038736;28;20214;-42
2022/09/18 08:29:17;;;;;;;6.00;1.33;;;12.20;99.90;;;;;;5043747;28;20207;-43
2022/09/18 08:31:49;;;;;;;4.17;1.30;;;12.20;99.90;;;;;;5046231;28;20208;-44
2022/09/18 08:34:18;;;;;;;6.40;1.50;;;;;;;;;;5035833;28;20239;-42
2022/09/18 08:36:47;;;;;;;9.60;1.73;;;;;;;;;;5022603;28;20697;-43
2022/09/18 08:39:37;;;;;;;7.17;1.10;;;;;;;;;;5037948;28;20199;-42
2022/09/18 08:42:19;;;;;;;6.60;1.07;;;;;;;;;;5040052;28;20557;-42
2022/09/18 08:44:51;;;;;;;3.60;0.70;;;;;;;;;;5040332;28;20241;-42
2022/09/18 08:47:25;;;;;;;1.93;0.87;;;;;;;;;;5042797;28;20215;-43
2022/09/18 08:49:57;;;;;;;3.77;0.70;;;;;;;;;;5040516;28;20314;-42
2022/09/18 08:52:27;;;;;;;1.17;0.73;;;11.30;99.90;;;;;;5018479;28;20307;-42
2022/09/18 08:55:09;;;;;;;2.50;0.70;;;11.30;99.90;;;;;;5039151;28;20297;-41
2022/09/18 08:57:47;;;;;;;5.03;1.07;;;11.30;99.90;;;;;;5034892;28;20234;-41
2022/09/18 09:00:24;;;;;;;3.00;0.90;;;11.50;99.90;;;;;;5027898;28;20230;-46
2022/09/18 09:03:17;;;;;;;3.80;1.13;;;11.60;99.90;;;;;;5042019;28;20609;-44
2022/09/18 09:05:49;;;;;;;5.37;1.37;;;11.70;99.90;;;;;;5040254;28;20253;-40
2022/09/18 09:08:53;;;;;;;6.43;1.23;;;11.80;99.90;;;;;;5016936;28;20191;-41
2022/09/18 09:11:33;;;;;;;6.07;1.50;;;11.90;99.90;;;;;;5027361;28;20746;-40
2022/09/18 09:14:18;;;;;;;7.03;0.90;;;12.10;99.90;;;;;;5041065;28;20205;-40
2022/09/18 09:16:51;;;;;;;3.27;1.07;;;12.20;99.90;;;;;;5044585;28;20267;-44
2022/09/18 09:19:27;;;;;;;5.60;1.30;;;12.40;99.90;;;;;;5035441;28;20207;-41
2022/09/18 09:22:02;;;;;;;5.57;1.10;;;12.50;99.90;;;;;;5039131;28;20610;-43
2022/09/18 09:24:32;;;;;;;5.40;1.00;;;12.50;99.90;;;;;;5021108;28;20223;-43
2022/09/18 09:27:27;;;;;;;6.30;1.10;;;12.40;99.90;;;;;;5037253;28;20622;-41
2022/09/18 09:30:21;;;;;;;3.53;1.00;;;12.40;99.90;;;;;;5017167;28;20223;-41
2022/09/18 09:33:18;;;;;;;3.10;0.90;;;12.30;99.90;;;;;;5041357;28;20287;-44
2022/09/18 09:36:07;;;;;;;4.17;0.67;;;12.40;99.90;;;;;;5032523;28;20239;-42
2022/09/18 09:38:52;;;;;;;3.23;1.40;;;12.50;99.90;;;;;;5043867;28;20236;-40
2022/09/18 09:41:27;;;;;;;2.70;0.90;;;12.60;99.90;;;;;;5023144;28;20222;-42
2022/09/18 09:44:04;;;;;;;3.47;0.93;;;12.70;99.90;;;;;;5039016;28;20293;-41
2022/09/18 09:46:51;;;;;;;4.80;1.20;;;;;;;;;;5033747;28;20208;-41
2022/09/18 09:49:24;;;;;;;2.43;0.87;;;12.90;99.90;;;;;;5046207;28;20227;-41
2022/09/18 09:51:56;;;;;;;1.80;0.60;;;12.90;99.90;;;;;;5032010;28;20213;-44
2022/09/18 09:54:24;;;;;;;3.63;1.10;;;13.00;99.90;;;;;;5027756;28;20207;-42
2022/09/18 09:56:57;;;;;;;6.60;0.80;;;13.10;99.90;;;;;;5025799;28;20695;-42
2022/09/18 09:59:35;;;;;;;8.13;0.93;;;13.10;99.90;;;;;;5030491;28;20199;-43
2022/09/18 10:02:47;;;;;;;4.83;1.37;;;13.10;99.90;;;;;;5034387;28;20198;-42
2022/09/18 10:05:24;;;;;;;2.33;0.60;;;13.10;99.90;;;;;;5050582;28;20591;-42
2022/09/18 10:07:59;;;;;;;4.87;1.00;;;13.20;99.90;;;;;;5051498;28;20204;-42
2022/09/18 10:10:33;;;;;;;4.43;1.10;;;13.20;99.90;;;;;;5035999;28;20215;-42
2022/09/18 10:13:04;;;;;;;5.00;0.80;;;13.10;99.90;;;;;;5024270;28;20230;-42
2022/09/18 10:15:38;;;;;;;5.27;1.17;;;13.10;99.90;;;;;;5034522;28;20727;-40
2022/09/18 10:18:13;;;;;;;3.13;1.10;;;13.20;99.90;;;;;;5030453;28;20202;-43
2022/09/18 10:20:41;;;;;;;2.70;0.97;;;13.20;99.90;;;;;;5047198;28;20667;-41
2022/09/18 10:23:12;;;;;;;4.43;1.53;;;;;;;;;;5022117;28;20223;-44
2022/09/18 10:25:42;;;;;;;4.13;1.20;;;;;;;;;;5043196;28;20219;-41
2022/09/18 10:28:12;;;;;;;5.43;1.30;;;;;;;;;;5021506;28;20298;-41
2022/09/18 10:30:53;;;;;;;2.37;1.17;;;;;;;;;;5039154;28;20219;-40
2022/09/18 10:33:31;;;;;;;3.93;0.90;;;;;;;;;;5034163;28;21080;-44
2022/09/18 10:36:01;;;;;;;7.20;1.60;;;;;;;;;;5028222;28;20233;-41
2022/09/18 10:38:31;;;;;;;4.23;0.90;;;;;;;;;;5032904;28;20222;-41
2022/09/18 10:41:24;;;;;;;4.50;1.10;;;;;;;;;;5034308;28;20191;-40
2022/09/18 10:43:57;;;;;;;5.17;1.20;;;;;;;;;;5024016;28;20590;-40
2022/09/18 10:46:29;;;;;;;5.53;1.00;;;;;;;;;;5035898;28;20227;-43
2022/09/18 10:48:58;;;;;;;5.20;0.67;;;;;;;;;;5027034;28;20211;-43
2022/09/18 10:51:28;;;;;;;3.73;1.10;;;;;;;;;;5059787;28;20578;-43
2022/09/18 10:54:10;;;;;;;6.47;0.93;;;;;;;;;;5028422;28;20677;-41
2022/09/18 10:56:50;;;;;;;3.87;1.00;;;;;;;;;;5027513;28;20196;-45
2022/09/18 10:59:34;;;;;;;2.03;0.77;;;11.50;99.90;;;;;;5025686;28;20353;-42
2022/09/18 11:02:06;;;;;;;4.23;1.47;;;11.50;99.90;;;;;;5032047;28;20877;-42
2022/09/18 11:04:35;;;;;;;2.93;0.50;;;11.30;99.90;;;;;;5041533;28;20311;-41
2022/09/18 11:07:06;;;;;;;1.47;0.57;;;11.30;99.90;;;;;;5037012;28;20205;-41
2022/09/18 11:09:36;;;;;;;1.40;0.47;;;11.30;99.90;;;;;;5034431;28;20215;-41
2022/09/18 11:12:04;;;;;;;2.50;0.50;;;11.40;99.90;;;;;;5033201;28;20218;-41
2022/09/18 11:14:41;;;;;;;2.10;0.67;;;11.50;99.90;;;;;;5027932;28;20231;-41
2022/09/18 11:17:25;;;;;;;1.87;0.40;;;11.60;99.90;;;;;;5039498;28;20323;-41
2022/09/18 11:19:55;;;;;;;2.83;0.83;;;11.70;99.90;;;;;;5040292;28;20317;-41
2022/09/18 11:22:38;;;;;;;2.27;0.53;;;11.90;99.90;;;;;;5055556;28;20214;-42
2022/09/18 11:25:18;;;;;;;3.33;0.50;;;12.10;99.90;;;;;;5030439;28;20381;-40
2022/09/18 11:27:50;;;;;;;4.20;0.93;;;12.20;99.90;;;;;;5058744;28;20203;-44
2022/09/18 11:30:23;;;;;;;3.17;0.73;;;12.50;99.90;;;;;;5032897;28;20227;-41
2022/09/18 11:32:57;;;;;;;4.80;1.10;;;12.60;99.90;;;;;;5040013;28;20196;-42
2022/09/18 11:35:28;;;;;;;5.57;0.90;;;12.70;99.90;;;;;;5037903;28;20217;-43
2022/09/18 11:37:58;;;;;;;4.13;0.97;;;13.00;99.90;;;;;;5038793;28;20292;-45
2022/09/18 11:40:28;;;;;;;3.73;0.60;;;13.20;99.90;;;;;;5032801;28;20207;-43
2022/09/18 11:42:56;;;;;;;3.17;1.00;;;13.40;99.90;;;;;;5033758;28;20210;-42
2022/09/18 11:45:45;;;;;;;2.87;0.80;;;13.20;99.90;;;;;;5031361;28;20230;-44
2022/09/18 11:48:27;;;;;;;4.57;0.90;;;12.90;99.90;;;;;;5037079;28;20187;-43
2022/09/18 11:50:56;;;;;;;2.67;0.60;;;12.30;99.90;;;;;;5042928;28;20567;-42
2022/09/18 11:53:27;;;;;;;3.57;1.17;;;11.80;99.90;;;;;;5054153;28;20214;-42
2022/09/18 11:56:02;;;;;;;4.37;0.70;;;11.50;99.90;;;;;;5034053;28;20334;-44
2022/09/18 11:58:36;;;;;;;5.23;0.97;;;11.30;99.90;;;;;;5039993;28;20246;-41
2022/09/18 12:01:13;;;;;;;5.03;0.70;;;11.10;99.90;;;;;;5017172;28;20704;-41
2022/09/18 12:03:48;;;;;;;6.57;1.00;;;11.00;99.90;;;;;;5039675;28;20203;-44
2022/09/18 12:06:22;;;;;;;3.97;0.90;;;10.90;99.90;;;;;;5035061;28;21049;-41
2022/09/18 12:08:56;;;;;;;4.20;0.90;;;10.90;99.90;;;;;;5050857;28;20213;-41
2022/09/18 12:11:32;;;;;;;3.53;0.80;;;10.80;99.90;;;;;;5033287;28;20703;-42
2022/09/18 12:14:09;;;;;;;4.03;1.50;;;10.90;99.90;;;;;;5032426;28;20202;-40
2022/09/18 12:16:43;;;;;;;3.30;0.70;;;10.90;99.90;;;;;;5023933;28;20219;-41
2022/09/18 12:19:19;;;;;;;4.10;0.97;;;11.00;99.90;;;;;;5038537;28;20194;-42
2022/09/18 12:21:53;;;;;;;3.43;0.93;;;11.20;99.90;;;;;;5048671;28;20213;-43
2022/09/18 12:24:19;;;;;;;2.17;0.80;;;11.40;99.90;;;;;;5038596;28;21034;-41
2022/09/18 12:27:06;;;;;;;3.80;1.00;;;11.60;99.90;;;;;;5041468;28;20210;-40
2022/09/18 12:29:53;;;;;;;4.33;1.00;;;11.80;99.90;;;;;;5034944;28;20203;-46
2022/09/18 12:32:35;;;;;;;1.93;0.97;;;12.00;99.90;;;;;;5026735;28;20211;-41
2022/09/18 12:35:13;;;;;;;2.47;0.90;;;12.20;99.90;;;;;;5035424;28;20930;-43
2022/09/18 12:37:51;;;;;;;4.37;0.90;;;12.20;99.90;;;;;;5050958;28;20206;-43
2022/09/18 12:40:36;;;;;;;8.17;1.00;;;12.20;99.90;;;;;;5040451;28;20199;-42
2022/09/18 12:43:29;;;;;;;3.53;0.87;;;12.10;99.90;;;;;;5037589;28;20840;-40
2022/09/18 12:46:25;;;;;;;5.43;0.97;;;12.00;99.90;;;;;;5027757;28;20219;-41
2022/09/18 12:49:05;;;;;;;1.33;0.37;;;12.00;99.90;;;;;;5040113;28;20205;-44
2022/09/18 12:51:41;;;;;;;1.07;0.40;;;11.90;99.90;;;;;;5023848;28;20219;-42
2022/09/18 12:54:29;;;;;;;0.93;0.50;;;11.80;99.90;;;;;;5034099;28;20211;-42
2022/09/18 12:57:09;;;;;;;2.40;0.47;;;11.70;99.90;;;;;;5031257;28;20761;-41
2022/09/18 12:59:54;;;;;;;1.00;0.30;;;11.60;99.90;;;;;;5039296;28;20203;-41
2022/09/18 13:02:33;;;;;;;2.77;0.37;;;11.60;99.90;;;;;;5026482;28;20296;-42
2022/09/18 13:05:04;;;;;;;2.10;0.50;;;11.50;99.90;;;;;;5036672;28;20668;-39
2022/09/18 13:07:35;;;;;;;1.13;0.33;;;11.60;99.90;;;;;;5035697;28;20638;-41
2022/09/18 13:10:07;;;;;;;1.80;0.40;;;11.60;99.90;;;;;;5029637;28;20195;-41
2022/09/18 13:12:38;;;;;;;3.47;0.93;;;11.70;99.90;;;;;;5034768;28;20214;-41
2022/09/18 13:15:14;;;;;;;1.97;0.60;;;11.80;99.90;;;;;;5034840;28;20211;-41
2022/09/18 13:17:45;;;;;;;1.57;0.40;;;11.80;99.90;;;;;;5027167;28;20314;-40
2022/09/18 13:20:18;;;;;;;1.23;0.40;;;11.80;99.90;;;;;;5038189;28;20192;-41
2022/09/18 13:22:47;;;;;;;1.80;0.50;;;11.70;99.90;;;;;;5040857;28;20214;-44
2022/09/18 13:25:24;;;;;;;1.97;0.47;;;11.70;99.90;;;;;;5038623;28;20238;-43
2022/09/18 13:27:53;;;;;;;2.17;0.53;;;11.60;99.90;;;;;;5031545;28;20217;-41
2022/09/18 13:30:25;;;;;;;0.67;0.30;;;11.60;99.90;;;;;;5038326;28;21159;-42